createdAt,value
2023-02-14T03:13:07.976Z,4.70
2023-02-14T03:14:50.205Z,4.70
2023-02-14T03:16:33.070Z,4.60
2023-02-14T03:18:13.854Z,4.50
2023-02-14T03:20:16.056Z,4.50
2023-02-14T03:21:56.040Z,4.50
2023-02-14T03:23:33.298Z,4.50
2023-02-14T03:25:17.555Z,4.50
2023-02-14T03:26:52.735Z,4.40
2023-02-14T03:28:34.851Z,4.40
2023-02-14T03:30:14.151Z,4.40
2023-02-14T03:31:56.892Z,4.40
2023-02-14T03:33:36.961Z,4.30
2023-02-14T03:35:19.467Z,4.40
2023-02-14T03:36:58.006Z,4.40
2023-02-14T03:38:35.688Z,4.30
2023-02-14T03:40:14.873Z,4.40
2023-02-14T03:41:57.367Z,4.30
2023-02-14T03:43:34.874Z,4.30
2023-02-14T03:45:13.227Z,4.30
2023-02-14T03:46:48.970Z,4.30
2023-02-14T03:48:24.890Z,4.30
2023-02-14T03:50:01.228Z,4.30
2023-02-14T03:51:37.079Z,4.30
2023-02-14T03:53:12.138Z,4.40
2023-02-14T03:54:48.920Z,4.40
2023-02-14T03:56:31.142Z,4.30
2023-02-14T03:58:11.689Z,4.30
2023-02-14T03:59:44.226Z,4.30
2023-02-14T04:01:22.539Z,4.20
2023-02-14T04:03:00.062Z,4.20
2023-02-14T04:04:36.847Z,4.20
2023-02-14T04:06:10.706Z,4.20
2023-02-14T04:07:49.492Z,4.30
2023-02-14T04:09:22.575Z,4.30
2023-02-14T04:10:58.076Z,4.40
2023-02-14T04:12:38.046Z,4.40
2023-02-14T04:14:11.297Z,4.50
2023-02-14T04:15:44.449Z,4.50
2023-02-14T04:17:35.097Z,4.50
2023-02-14T04:19:23.558Z,4.50
2023-02-14T04:20:56.846Z,4.50
2023-02-14T04:22:29.909Z,4.50
2023-02-14T04:24:02.999Z,4.50
2023-02-14T04:25:36.093Z,4.40
2023-02-14T04:27:11.077Z,4.50
2023-02-14T04:28:45.686Z,4.50
2023-02-14T04:30:20.882Z,4.50
2023-02-14T04:31:54.105Z,4.50
2023-02-14T04:33:27.220Z,4.50
2023-02-14T04:34:59.280Z,4.30
2023-02-14T04:36:32.357Z,4.20
2023-02-14T04:38:06.166Z,4.40
2023-02-14T04:39:38.774Z,4.30
2023-02-14T04:41:11.827Z,4.40
2023-02-14T04:42:44.071Z,4.40
2023-02-14T04:44:18.642Z,4.40
2023-02-14T04:45:51.728Z,4.30
2023-02-14T04:47:24.806Z,4.30
2023-02-14T04:48:57.897Z,4.30
2023-02-14T07:26:48.707Z,5.10
2023-02-14T07:28:21.851Z,5.30
2023-02-14T08:49:00.999Z,6.50
2023-02-14T08:50:34.851Z,6.60
2023-02-14T08:52:08.027Z,6.50
2023-02-14T11:09:16.071Z,6.40
2023-02-14T11:10:49.540Z,6.60
2023-02-14T11:12:40.551Z,6.60
2023-02-14T11:14:30.181Z,6.60
2023-02-14T11:16:06.135Z,6.60
2023-02-14T11:17:39.280Z,6.50
2023-02-14T11:19:23.452Z,6.50
2023-02-14T11:21:12.082Z,6.50
2023-02-14T11:22:45.170Z,6.60
2023-02-14T11:24:20.550Z,6.60
2023-02-14T11:25:56.807Z,6.70
2023-02-14T11:27:29.909Z,6.70
2023-02-14T11:29:12.017Z,6.60
2023-02-14T11:30:47.743Z,6.50
2023-02-14T11:32:23.794Z,6.50
2023-02-14T11:33:57.177Z,6.50
2023-02-14T11:35:34.752Z,6.50
2023-02-14T11:37:26.149Z,6.60
2023-02-14T11:39:06.359Z,6.60
2023-02-14T11:40:40.996Z,6.60
2023-02-14T11:42:14.644Z,6.60
2023-02-14T11:43:49.225Z,6.60
2023-02-14T11:45:31.252Z,6.60
2023-02-14T11:47:21.425Z,6.40
2023-02-14T11:48:59.900Z,6.40
2023-02-14T11:50:34.394Z,6.40
2023-02-14T11:52:11.938Z,6.40
2023-02-14T11:53:48.531Z,6.30
2023-02-14T11:55:28.142Z,6.40
2023-02-14T11:57:09.719Z,6.40
2023-02-14T11:58:49.056Z,6.40
2023-02-14T12:00:23.599Z,6.50
2023-02-14T12:01:58.990Z,6.50
2023-02-14T12:05:20.716Z,6.50
2023-02-14T12:06:55.744Z,6.50
2023-02-14T12:08:31.574Z,6.40
2023-02-14T12:10:24.974Z,6.40
2023-02-14T12:12:00.056Z,6.60
2023-02-14T12:13:33.914Z,6.70
2023-02-14T12:15:36.638Z,6.70
2023-02-14T12:17:20.407Z,6.70
2023-02-14T12:18:57.365Z,6.80
2023-02-14T12:23:59.764Z,6.70
2023-02-14T12:25:41.328Z,6.80
2023-02-14T12:27:21.304Z,6.70
2023-02-14T12:29:03.890Z,6.80
2023-02-14T12:30:37.357Z,6.80
2023-02-14T12:32:20.713Z,6.80
2023-02-14T12:33:53.934Z,6.80
2023-02-14T12:35:42.539Z,6.80
2023-02-14T12:37:24.697Z,6.80
2023-02-14T12:39:10.071Z,6.90
2023-02-14T12:40:52.972Z,7.00
2023-02-14T12:42:42.187Z,7.20
2023-02-14T12:44:26.215Z,7.20
2023-02-14T12:46:20.199Z,7.30
2023-02-14T12:48:06.821Z,7.30
2023-02-14T12:50:02.677Z,7.30
2023-02-14T12:51:43.897Z,7.10
2023-02-14T12:53:34.849Z,7.30
2023-02-14T12:55:35.754Z,7.30
2023-02-14T12:57:24.317Z,7.90
2023-02-14T12:59:08.911Z,8.70
2023-02-14T13:00:54.638Z,9.20
2023-02-14T13:02:50.383Z,9.90
2023-02-14T13:04:56.192Z,9.80
2023-02-14T13:06:31.659Z,9.50
2023-02-14T13:08:16.478Z,9.20
2023-02-14T13:09:59.254Z,9.00
2023-02-14T13:11:40.363Z,8.90
2023-02-14T13:13:24.168Z,8.90
2023-02-14T13:15:07.731Z,8.90
2023-02-14T13:16:47.910Z,8.60
2023-02-14T13:18:40.597Z,8.50
2023-02-14T13:20:41.244Z,8.30
2023-02-14T13:22:19.079Z,8.40
2023-02-14T13:23:58.875Z,8.40
2023-02-14T13:25:40.870Z,8.40
2023-02-14T13:27:21.330Z,8.40
2023-02-14T13:29:02.209Z,8.10
2023-02-14T13:30:38.556Z,8.10
2023-02-14T13:32:16.308Z,8.00
2023-02-14T13:33:53.195Z,7.90
2023-02-14T13:35:29.142Z,7.80
2023-02-14T13:37:07.490Z,7.70
2023-02-14T13:38:44.849Z,7.80
2023-02-14T13:40:19.258Z,7.90
2023-02-14T13:41:53.711Z,7.90
2023-02-14T13:43:47.572Z,8.00
2023-02-14T13:45:51.984Z,8.10
2023-02-14T13:47:27.211Z,8.00
2023-02-14T13:49:02.682Z,8.10
2023-02-14T13:50:39.173Z,8.00
2023-02-14T13:52:12.361Z,8.10
2023-02-14T13:53:47.528Z,8.00
2023-02-14T13:55:24.204Z,8.00
2023-02-14T13:56:59.078Z,7.90
2023-02-14T13:58:32.802Z,7.90
2023-02-14T14:00:37.685Z,8.10
2023-02-14T14:02:33.751Z,8.10
2023-02-14T14:04:27.876Z,8.30
2023-02-14T14:06:08.576Z,8.30
2023-02-14T14:07:41.696Z,8.40
2023-02-14T14:09:54.037Z,8.50
2023-02-14T14:12:01.767Z,8.50
2023-02-14T14:13:57.542Z,8.40
2023-02-14T14:15:30.847Z,8.30
2023-02-14T14:17:20.510Z,8.10
2023-02-14T14:18:56.484Z,8.20
2023-02-14T14:20:48.941Z,8.20
2023-02-14T14:22:22.591Z,8.20
2023-02-14T14:24:22.753Z,8.30
2023-02-14T14:25:56.041Z,8.20
2023-02-14T14:27:35.874Z,8.10
2023-02-14T14:29:17.387Z,8.00
2023-02-14T14:30:50.699Z,8.00
2023-02-14T14:32:28.179Z,7.90
2023-02-14T14:34:04.102Z,7.70
2023-02-14T14:35:37.277Z,7.60
2023-02-14T14:37:18.908Z,7.50
2023-02-14T14:38:54.135Z,7.40
2023-02-14T14:40:30.436Z,7.30
2023-02-14T14:42:07.972Z,7.20
2023-02-14T14:43:43.115Z,7.10
2023-02-14T14:45:23.822Z,6.90
2023-02-14T14:47:00.405Z,6.80
2023-02-14T14:48:38.421Z,6.80
2023-02-14T14:50:18.899Z,6.80
2023-02-14T14:51:52.059Z,6.80
2023-02-14T14:53:29.954Z,6.90
2023-02-14T14:55:05.114Z,6.90
2023-02-14T15:00:20.515Z,7.20
2023-02-14T15:01:54.430Z,7.30
2023-02-14T15:03:30.197Z,7.40
2023-02-14T15:05:18.490Z,7.50
2023-02-14T15:06:52.001Z,7.60
2023-02-14T15:08:34.434Z,7.70
2023-02-14T15:10:23.204Z,7.70
2023-02-14T15:12:15.641Z,7.80
2023-02-14T15:13:53.743Z,7.80
2023-02-14T15:15:28.360Z,7.50
2023-02-14T15:17:02.917Z,7.30
2023-02-14T15:18:36.156Z,7.10
2023-02-14T15:20:15.544Z,6.90
2023-02-14T15:21:48.668Z,6.70
2023-02-14T15:23:24.092Z,6.60
2023-02-14T15:24:59.027Z,6.40
2023-02-14T15:26:35.033Z,6.30
2023-02-14T15:28:08.156Z,6.20
2023-02-14T15:29:41.278Z,6.00
2023-02-14T15:31:15.901Z,6.00
2023-02-14T15:32:51.612Z,5.90
2023-02-14T15:34:28.653Z,5.70
2023-02-14T15:50:17.881Z,5.20
2023-02-14T15:56:46.697Z,5.00
2023-02-14T15:58:22.776Z,5.00
2023-02-14T16:01:30.883Z,4.90
2023-02-14T16:03:07.987Z,5.00
2023-02-14T18:08:16.191Z,1.30
2023-02-14T18:09:49.249Z,1.40
2023-02-14T18:11:25.791Z,1.20
2023-02-14T18:12:58.834Z,1.20
2023-02-14T18:14:32.253Z,1.10
2023-02-14T18:16:07.034Z,1.10
2023-02-14T18:17:40.124Z,1.00
2023-02-14T18:19:15.778Z,1.00
2023-02-14T18:20:54.215Z,1.00
2023-02-14T18:22:28.382Z,1.00
2023-02-14T18:24:01.491Z,0.90
2023-02-14T18:25:34.577Z,1.00
2023-02-14T18:27:09.024Z,1.00
2023-02-14T18:28:41.330Z,1.00
2023-02-14T18:30:15.289Z,1.10
2023-02-14T18:31:48.537Z,1.00
2023-02-14T18:33:23.739Z,1.00
2023-02-14T18:34:58.278Z,1.00
2023-02-14T18:36:32.869Z,0.90
2023-02-14T18:38:07.269Z,0.90
2023-02-14T18:39:40.525Z,1.00
2023-02-14T18:41:15.287Z,1.00
2023-02-14T18:42:49.731Z,1.00
2023-02-14T18:44:23.459Z,1.00
2023-02-14T18:45:56.565Z,1.00
2023-02-14T18:47:29.738Z,1.00
2023-02-14T18:49:05.926Z,1.00
2023-02-14T18:50:39.112Z,1.10
2023-02-14T18:52:12.275Z,1.10
2023-02-14T18:53:47.124Z,1.20
2023-02-14T18:55:20.181Z,1.10
2023-02-14T18:56:53.348Z,1.10
2023-02-14T18:58:27.846Z,1.10
2023-02-14T19:00:06.506Z,1.00
2023-02-14T19:01:42.512Z,1.00
2023-02-14T19:03:15.693Z,1.10
2023-02-14T19:04:49.025Z,1.00
2023-02-14T19:06:22.970Z,0.90
2023-02-14T19:07:58.197Z,0.90
2023-02-14T19:09:38.860Z,1.00
2023-02-14T19:11:12.892Z,1.00
2023-02-14T19:12:46.096Z,1.00
2023-02-14T19:14:20.723Z,0.90
2023-02-14T19:15:53.397Z,0.90
2023-02-14T19:17:26.671Z,0.80
2023-02-14T19:19:02.288Z,0.80
2023-02-14T19:20:35.421Z,0.80
2023-02-14T19:22:08.500Z,0.70
2023-02-14T19:23:42.022Z,0.70
